Terminal Aerodrome Forecast
Issued by NWS Dodge City, KS

Home | Current Version | Previous Version | Graphics & Text | Print | Product List | Glossary Off
Versions: 1 2 3 4 5 6 7 8 9 10 11 12 13 14 15 16 17 18

000
FTUS43 KDDC 220535
TAFDDC
TAF
KDDC 220535Z 2206/2306 18012KT P6SM FEW200
     FM221500 18018G27KT P6SM SKC
     FM230100 15013KT P6SM SKC=

USA.gov is the U.S. government's official web portal to all federal, state and local government web resources and services.